Avery, Arkansas
Current Conditions -  °F | °C
As of 12:53 AM on Sunday 26 Oct 2014 (Local Time) from KLLQ Reporting Station
Clear Clear  
Wind Chill: 21°   Ceiling: Unl
Heat Index: 21°   Visibility: 10mi
Dew Point: 17°   Wind: 6mph
Humidity: 81%   Direction: 250°WSW
Pressure: 30.04"   Gusts: NA
Location:  33.9283°N, 91.468°W
Report Text: KLLQ 260553Z AUTO 25005KT 10SM CLR 21/17 A3004 RMK AO2 SLP167 60000 T02060172 10228 20206 402780117 58007
Loading
Personal Weather Stations






























Interactive Weather Map New forecast layout! Learn more

10-Day Weather Forecast

Advertisements
Track Severe Weather on mobile